Time;durP1;ratioP1;P1;durP2;ratioP2;P2;SDS_P1;SDS_P2;PMS_P1;PMS_P2;Temp;Humidity;BMP_temperature;BMP_pressure;BME280_temperature;BME280_humidity;BME280_pressure;Samples;Min_cycle;Max_cycle;Signal;HPM_P1;HPM_P2
2022/08/30 00:01:01;;;;;;;4.63;1.60;;;16.40;6.30;;;;;;5150028;27;35439;-75
2022/08/30 00:02:00;;;;;;;2.67;1.77;;;16.30;6.50;;;;;;5153323;27;34033;-75
2022/08/30 00:04:26;;;;;;;4.10;1.52;;;16.30;6.40;;;;;;5149808;27;34126;-75
2022/08/30 00:06:52;;;;;;;3.38;1.90;;;16.20;6.40;;;;;;5150220;27;34043;-75
2022/08/30 00:09:18;;;;;;;1.60;1.50;;;16.20;6.50;;;;;;5168643;27;34742;-75
2022/08/30 00:11:44;;;;;;;5.72;1.60;;;16.20;6.70;;;;;;5168870;27;34074;-75
2022/08/30 00:14:10;;;;;;;4.00;1.83;;;16.20;6.70;;;;;;5168576;27;34348;-76
2022/08/30 00:16:35;;;;;;;4.03;1.60;;;16.20;6.70;;;;;;5149914;27;34144;-75
2022/08/30 00:19:01;;;;;;;2.20;1.90;;;16.10;6.80;;;;;;5149118;27;35679;-75
2022/08/30 00:21:27;;;;;;;3.72;2.00;;;16.10;6.70;;;;;;5168133;27;34388;-75
2022/08/30 00:23:53;;;;;;;2.50;1.70;;;16.10;6.80;;;;;;5150027;27;34476;-75
2022/08/30 00:26:19;;;;;;;2.40;1.65;;;16.10;6.90;;;;;;5149930;27;34157;-75
2022/08/30 00:28:45;;;;;;;4.35;1.70;;;16.10;7.00;;;;;;5168126;27;34730;-75
2022/08/30 00:31:11;;;;;;;2.38;1.80;;;16.10;7.00;;;;;;5168218;27;34020;-75
2022/08/30 00:33:38;;;;;;;2.97;1.90;;;16.00;7.00;;;;;;5149056;27;34022;-76
2022/08/30 00:36:04;;;;;;;4.38;2.00;;;16.00;7.30;;;;;;5149932;27;34691;-75
2022/08/30 00:38:30;;;;;;;3.05;1.65;;;16.00;7.10;;;;;;5167675;27;35026;-75
2022/08/30 00:40:58;;;;;;;2.85;1.88;;;16.00;7.20;;;;;;5149548;27;34168;-75
2022/08/30 00:43:28;;;;;;;4.13;1.67;;;15.90;7.30;;;;;;5168149;27;34123;-75
2022/08/30 00:45:55;;;;;;;1.80;1.70;;;15.90;7.80;;;;;;5149804;27;34180;-75
2022/08/30 00:48:21;;;;;;;2.97;1.95;;;15.80;7.50;;;;;;5131952;27;36027;-75
2022/08/30 00:50:53;;;;;;;2.22;1.50;;;15.80;7.40;;;;;;5149227;27;34323;-75
2022/08/30 00:53:24;;;;;;;3.78;1.42;;;15.80;8.30;;;;;;5132211;27;34198;-75
2022/08/30 00:55:52;;;;;;;3.15;1.75;;;15.70;7.90;;;;;;5131645;27;34043;-75
2022/08/30 00:58:24;;;;;;;8.68;1.70;;;15.70;7.80;;;;;;5167337;27;34424;-75
2022/08/30 01:00:52;;;;;;;2.00;1.80;;;15.60;7.90;;;;;;5149399;27;34188;-75
2022/08/30 01:03:18;;;;;;;2.55;1.88;;;15.60;7.90;;;;;;5131845;27;33653;-76
2022/08/30 01:05:47;;;;;;;2.20;1.80;;;15.60;7.80;;;;;;5168060;27;34070;-75
2022/08/30 01:08:14;;;;;;;4.10;1.65;;;15.60;7.90;;;;;;5149074;27;36019;-75
2022/08/30 01:10:41;;;;;;;2.70;1.67;;;15.60;7.90;;;;;;5149204;27;34120;-75
2022/08/30 01:13:08;;;;;;;2.20;1.90;;;15.60;7.90;;;;;;5148951;27;34256;-75
2022/08/30 01:15:34;;;;;;;3.17;2.10;;;15.60;8.00;;;;;;5167405;27;34217;-75
2022/08/30 01:18:02;;;;;;;2.85;1.90;;;15.60;8.00;;;;;;5148617;27;35928;-75
2022/08/30 01:20:38;;;;;;;2.08;1.88;;;15.50;8.10;;;;;;5167598;27;34127;-74
2022/08/30 01:23:09;;;;;;;2.50;1.80;;;15.50;9.00;;;;;;5167740;27;34036;-75
2022/08/30 01:25:36;;;;;;;2.95;1.83;;;15.50;8.80;;;;;;5167456;27;34594;-75
2022/08/30 01:28:06;;;;;;;2.60;1.90;;;15.50;8.40;;;;;;5167120;27;34973;-75
2022/08/30 01:30:33;;;;;;;4.00;2.13;;;15.40;8.90;;;;;;5148349;27;34198;-74
2022/08/30 01:33:02;;;;;;;2.03;1.70;;;15.30;8.50;;;;;;5131734;27;34187;-75
2022/08/30 01:35:37;;;;;;;3.00;1.75;;;15.30;8.70;;;;;;5131765;27;34057;-75
2022/08/30 01:38:04;;;;;;;3.17;1.95;;;15.30;9.20;;;;;;5148609;27;35857;-75
2022/08/30 01:40:30;;;;;;;3.10;1.88;;;15.20;8.60;;;;;;5148505;27;34314;-75
2022/08/30 01:42:56;;;;;;;3.28;1.73;;;15.20;8.70;;;;;;5148494;27;34089;-75
2022/08/30 01:45:22;;;;;;;2.55;1.85;;;15.20;8.80;;;;;;5148187;27;34469;-75
2022/08/30 01:47:49;;;;;;;3.95;2.13;;;15.10;8.80;;;;;;5148003;27;35765;-75
2022/08/30 01:50:15;;;;;;;2.80;1.95;;;15.10;9.00;;;;;;5148999;27;34274;-75
2022/08/30 01:52:41;;;;;;;1.77;1.63;;;15.10;9.10;;;;;;5131169;27;34114;-76
2022/08/30 01:55:08;;;;;;;3.10;1.70;;;15.00;9.10;;;;;;5148298;27;34089;-75
2022/08/30 01:57:34;;;;;;;3.33;1.80;;;15.00;9.20;;;;;;5148135;27;35567;-75
2022/08/30 02:00:00;;;;;;;5.60;1.90;;;15.00;9.20;;;;;;5148129;27;34187;-75
2022/08/30 02:02:28;;;;;;;2.85;1.70;;;15.00;9.20;;;;;;5147858;27;34089;-74
2022/08/30 02:04:55;;;;;;;2.80;1.73;;;14.90;9.60;;;;;;5148428;27;34372;-74
2022/08/30 02:07:22;;;;;;;3.72;1.80;;;14.90;9.40;;;;;;5147480;27;36839;-74
2022/08/30 02:09:50;;;;;;;2.75;1.85;;;14.80;9.40;;;;;;5131279;27;34287;-75
2022/08/30 02:12:17;;;;;;;3.95;2.05;;;14.70;9.50;;;;;;5147763;27;34106;-75
2022/08/30 02:14:43;;;;;;;2.83;1.98;;;14.70;9.70;;;;;;5148039;27;34053;-74
2022/08/30 02:17:11;;;;;;;2.80;1.90;;;14.70;9.70;;;;;;5148103;27;35773;-75
2022/08/30 02:19:38;;;;;;;5.32;1.80;;;14.60;9.80;;;;;;5147682;27;34230;-75
2022/08/30 02:22:05;;;;;;;2.55;1.77;;;14.60;9.80;;;;;;5148277;27;34236;-74
2022/08/30 02:24:31;;;;;;;1.98;1.75;;;14.60;10.00;;;;;;5147930;27;34034;-74
2022/08/30 02:26:57;;;;;;;2.38;2.05;;;14.50;10.00;;;;;;5130391;27;36234;-74
2022/08/30 02:29:24;;;;;;;2.42;2.00;;;14.40;10.10;;;;;;5147144;27;34165;-75
2022/08/30 02:31:50;;;;;;;2.75;2.38;;;14.40;10.30;;;;;;5147951;27;34208;-74
2022/08/30 02:34:17;;;;;;;2.67;1.90;;;14.30;10.40;;;;;;5147684;27;34421;-75
2022/08/30 02:36:44;;;;;;;2.10;1.90;;;14.30;10.40;;;;;;5147084;27;36158;-74
2022/08/30 02:39:12;;;;;;;3.83;1.85;;;14.20;10.40;;;;;;5147713;27;34137;-75
2022/08/30 02:41:38;;;;;;;3.20;2.15;;;14.20;10.60;;;;;;5147794;27;34126;-75
2022/08/30 02:44:05;;;;;;;4.75;1.95;;;14.20;10.70;;;;;;5148414;27;34314;-75
2022/08/30 02:46:31;;;;;;;4.40;2.28;;;14.10;10.70;;;;;;5165772;27;34394;-75
2022/08/30 02:48:57;;;;;;;1.77;1.60;;;14.10;10.80;;;;;;5166099;27;34081;-74
2022/08/30 02:51:23;;;;;;;3.05;1.90;;;14.10;10.80;;;;;;5166323;27;34304;-75
2022/08/30 02:53:49;;;;;;;1.75;1.63;;;14.00;10.80;;;;;;5147779;27;34110;-74
2022/08/30 02:56:15;;;;;;;2.22;1.90;;;14.10;11.10;;;;;;5147168;27;35854;-74
2022/08/30 02:58:43;;;;;;;1.95;1.73;;;14.00;11.00;;;;;;5147269;27;34045;-76
2022/08/30 03:01:12;;;;;;;2.08;1.80;;;14.00;11.10;;;;;;5130643;27;34239;-75
2022/08/30 03:03:40;;;;;;;2.25;2.00;;;14.00;11.20;;;;;;5147307;27;34152;-75
2022/08/30 03:06:06;;;;;;;1.98;1.70;;;13.90;11.20;;;;;;5165777;27;34167;-75
2022/08/30 03:08:33;;;;;;;2.28;1.80;;;13.90;11.00;;;;;;5165622;27;34052;-74
2022/08/30 03:10:59;;;;;;;1.65;1.52;;;13.90;11.20;;;;;;5166394;27;34095;-75
2022/08/30 03:13:25;;;;;;;2.25;1.75;;;13.90;11.40;;;;;;5165904;27;34085;-75
2022/08/30 03:15:51;;;;;;;2.47;1.70;;;13.80;11.10;;;;;;5146975;27;35700;-75
2022/08/30 03:18:18;;;;;;;3.40;2.20;;;13.80;11.00;;;;;;5165227;27;34127;-75
2022/08/30 03:20:45;;;;;;;2.13;1.88;;;13.70;11.20;;;;;;5150043;27;34034;-75
2022/08/30 03:23:11;;;;;;;4.63;1.88;;;13.70;11.30;;;;;;5150965;27;34716;-75
2022/08/30 03:25:38;;;;;;;1.75;1.55;;;13.70;11.30;;;;;;5168364;27;34454;-75
2022/08/30 03:28:05;;;;;;;4.38;1.95;;;13.70;11.50;;;;;;5151521;27;34319;-75
2022/08/30 03:30:32;;;;;;;2.72;1.85;;;13.70;11.40;;;;;;5133528;27;34498;-75
2022/08/30 03:32:58;;;;;;;4.72;1.85;;;13.60;11.40;;;;;;5150560;27;34296;-75
2022/08/30 03:35:24;;;;;;;2.55;2.08;;;13.60;11.40;;;;;;5150428;27;37238;-75
2022/08/30 03:37:50;;;;;;;3.15;1.77;;;13.60;11.30;;;;;;5133337;27;34143;-75
2022/08/30 03:40:19;;;;;;;2.03;1.70;;;13.60;11.60;;;;;;5168796;27;34117;-75
2022/08/30 03:42:46;;;;;;;2.95;1.80;;;13.50;11.80;;;;;;5169415;27;34337;-75
2022/08/30 03:45:14;;;;;;;4.45;2.08;;;13.40;11.60;;;;;;5150071;27;36758;-75
2022/08/30 03:47:40;;;;;;;2.78;1.67;;;13.40;12.00;;;;;;5150543;27;34282;-75
2022/08/30 03:50:06;;;;;;;3.08;1.95;;;13.40;11.90;;;;;;5133233;27;34195;-75
2022/08/30 03:52:32;;;;;;;3.42;2.05;;;13.30;12.20;;;;;;5150022;27;34463;-74
2022/08/30 03:54:59;;;;;;;2.67;1.88;;;13.30;11.90;;;;;;5150238;27;36589;-75
2022/08/30 03:57:27;;;;;;;2.47;1.60;;;13.20;12.20;;;;;;5150695;27;34137;-75
2022/08/30 03:59:53;;;;;;;6.95;2.08;;;13.20;12.40;;;;;;5168709;27;34385;-75
2022/08/30 04:02:19;;;;;;;2.45;1.80;;;13.20;12.30;;;;;;5150306;27;34157;-75
2022/08/30 04:04:45;;;;;;;4.95;2.17;;;13.20;12.40;;;;;;5150038;27;35895;-74
2022/08/30 04:07:11;;;;;;;1.85;1.67;;;13.20;12.40;;;;;;5150012;27;34322;-74
2022/08/30 04:09:37;;;;;;;3.97;1.73;;;13.10;12.50;;;;;;5149907;27;34245;-74
2022/08/30 04:12:03;;;;;;;2.63;1.77;;;13.10;12.50;;;;;;5168567;27;34135;-75
2022/08/30 04:14:29;;;;;;;2.22;2.00;;;13.10;12.50;;;;;;5149512;27;35488;-75
2022/08/30 04:16:56;;;;;;;2.15;1.92;;;13.10;12.80;;;;;;5150147;27;34168;-74
2022/08/30 04:19:23;;;;;;;3.60;2.08;;;13.00;12.70;;;;;;5148693;27;34294;-74
2022/08/30 04:21:49;;;;;;;3.22;1.70;;;13.00;12.70;;;;;;5167705;27;34285;-75
2022/08/30 04:24:15;;;;;;;3.88;2.00;;;13.00;12.90;;;;;;5167152;27;35205;-75
2022/08/30 04:26:41;;;;;;;2.97;2.20;;;13.00;12.80;;;;;;5148740;27;34180;-75
2022/08/30 04:29:07;;;;;;;4.93;2.00;;;13.00;12.80;;;;;;5148504;27;34206;-75
2022/08/30 04:31:33;;;;;;;3.58;1.90;;;12.90;12.80;;;;;;5148000;27;34131;-75
2022/08/30 04:33:59;;;;;;;2.08;1.77;;;13.00;12.80;;;;;;5130929;27;35643;-75
2022/08/30 04:36:25;;;;;;;1.60;1.50;;;12.90;12.90;;;;;;5148741;27;34133;-75
2022/08/30 04:38:51;;;;;;;2.03;1.83;;;12.90;13.00;;;;;;5148408;27;34289;-74
2022/08/30 04:41:19;;;;;;;2.83;1.90;;;12.90;13.00;;;;;;5147902;27;34467;-75
2022/08/30 04:43:49;;;;;;;7.05;1.80;;;12.80;13.10;;;;;;5148748;27;34111;-74
2022/08/30 04:46:15;;;;;;;6.00;2.00;;;12.80;13.00;;;;;;5148798;27;34081;-75
2022/08/30 04:48:41;;;;;;;6.28;1.98;;;12.80;13.00;;;;;;5131042;27;34125;-75
2022/08/30 04:51:11;;;;;;;2.47;1.95;;;12.80;13.00;;;;;;5166740;27;34062;-75
2022/08/30 04:53:37;;;;;;;1.90;1.45;;;12.80;13.30;;;;;;5147542;27;36060;-74
2022/08/30 04:56:09;;;;;;;6.00;2.08;;;12.80;13.10;;;;;;5130138;27;34121;-74
2022/08/30 04:58:35;;;;;;;2.72;1.73;;;12.80;13.90;;;;;;5141871;27;34211;-74
2022/08/30 05:01:01;;;;;;;3.65;2.17;;;12.80;13.30;;;;;;5144735;27;34633;-75
2022/08/30 05:03:27;;;;;;;3.40;1.60;;;12.80;13.40;;;;;;5147202;27;35827;-75
2022/08/30 05:05:53;;;;;;;3.42;1.73;;;12.80;13.10;;;;;;5147645;27;34169;-75
2022/08/30 05:08:20;;;;;;;2.42;1.90;;;12.90;13.20;;;;;;5130711;27;34142;-75
2022/08/30 05:10:50;;;;;;;2.67;1.90;;;12.90;13.20;;;;;;5147915;27;34466;-75
2022/08/30 05:13:17;;;;;;;2.00;1.67;;;12.90;13.30;;;;;;5147342;27;35943;-74
2022/08/30 05:15:44;;;;;;;1.98;1.60;;;12.90;13.30;;;;;;5147573;27;34249;-75
2022/08/30 05:18:10;;;;;;;2.13;1.88;;;12.90;13.20;;;;;;5148232;27;34211;-75
2022/08/30 05:20:37;;;;;;;2.47;1.80;;;13.00;13.10;;;;;;4890492;27;7247115;-75
2022/08/30 05:23:04;;;;;;;3.63;2.05;;;13.10;13.20;;;;;;5131532;27;34154;-75
2022/08/30 05:25:35;;;;;;;2.45;2.13;;;13.10;13.20;;;;;;5148550;27;35844;-74
2022/08/30 05:28:01;;;;;;;3.88;2.20;;;13.20;13.20;;;;;;5131506;27;33996;-75
2022/08/30 05:30:31;;;;;;;6.53;2.75;;;13.20;13.10;;;;;;5148894;27;34349;-75
2022/08/30 05:32:57;;;;;;;4.07;2.28;;;13.30;13.10;;;;;;5148966;27;34179;-75
2022/08/30 05:35:23;;;;;;;3.72;2.20;;;13.40;13.10;;;;;;5148069;27;35740;-75
2022/08/30 05:37:49;;;;;;;4.65;1.90;;;13.40;12.90;;;;;;5167117;27;34539;-75
2022/08/30 05:40:16;;;;;;;4.85;2.38;;;13.50;13.00;;;;;;5167118;27;34117;-75
2022/08/30 05:42:43;;;;;;;3.13;2.03;;;13.60;13.10;;;;;;5130948;27;34561;-75
2022/08/30 05:45:10;;;;;;;2.63;2.10;;;13.70;13.00;;;;;;5148648;27;35734;-75
2022/08/30 05:47:37;;;;;;;3.47;2.30;;;13.80;12.90;;;;;;5148446;27;34097;-75
2022/08/30 05:50:05;;;;;;;4.13;2.20;;;13.90;12.80;;;;;;5148271;27;34402;-75
2022/08/30 05:52:35;;;;;;;3.25;2.20;;;13.90;13.00;;;;;;5131288;27;34009;-75
2022/08/30 05:55:03;;;;;;;4.38;2.33;;;14.10;13.00;;;;;;5148226;27;36370;-76
2022/08/30 05:57:32;;;;;;;2.90;1.95;;;14.10;12.70;;;;;;5166205;27;34401;-77
2022/08/30 06:00:03;;;;;;;4.88;2.55;;;14.20;12.90;;;;;;5166714;27;34049;-77
2022/08/30 06:02:29;;;;;;;3.60;2.10;;;14.30;12.70;;;;;;5131773;27;34209;-75
2022/08/30 06:04:55;;;;;;;2.67;2.35;;;14.40;12.70;;;;;;5166603;27;35260;-75
2022/08/30 06:07:21;;;;;;;2.85;2.15;;;14.50;12.60;;;;;;5148099;27;34091;-75
2022/08/30 06:09:47;;;;;;;4.25;2.22;;;14.60;12.50;;;;;;5130948;27;34149;-75
2022/08/30 06:12:13;;;;;;;6.82;2.45;;;14.70;12.40;;;;;;5130589;27;34109;-75
2022/08/30 06:14:39;;;;;;;10.90;2.63;;;14.90;12.40;;;;;;5148213;27;35486;-75
2022/08/30 06:17:06;;;;;;;4.80;2.05;;;15.00;12.20;;;;;;5148434;27;34258;-75
2022/08/30 06:19:32;;;;;;;14.90;2.83;;;15.20;11.90;;;;;;5147262;27;34109;-75
2022/08/30 06:21:59;;;;;;;5.07;2.00;;;15.60;11.60;;;;;;5130261;27;34107;-75
2022/08/30 06:24:25;;;;;;;2.88;2.42;;;15.90;11.10;;;;;;5148228;27;34527;-75
2022/08/30 06:26:51;;;;;;;4.63;2.60;;;16.20;10.90;;;;;;5166472;27;34182;-75
2022/08/30 06:29:19;;;;;;;8.43;2.40;;;16.50;10.50;;;;;;5130170;27;34195;-75
2022/08/30 06:31:46;;;;;;;3.40;2.20;;;16.90;10.10;;;;;;5130859;27;34321;-75
2022/08/30 06:34:12;;;;;;;3.35;2.00;;;17.40;9.40;;;;;;5166306;27;35343;-76
2022/08/30 06:36:39;;;;;;;4.05;2.05;;;17.70;8.90;;;;;;5147397;27;34344;-75
2022/08/30 06:39:05;;;;;;;5.63;2.22;;;17.90;8.40;;;;;;5147885;27;34239;-75
2022/08/30 06:41:35;;;;;;;6.13;2.28;;;18.10;8.30;;;;;;5147508;27;34093;-75
2022/08/30 06:44:03;;;;;;;4.15;1.92;;;18.20;8.40;;;;;;5131253;27;34445;-76
2022/08/30 06:46:31;;;;;;;5.82;2.50;;;18.30;8.50;;;;;;5146968;27;34235;-75
2022/08/30 06:48:58;;;;;;;3.05;2.20;;;18.20;8.50;;;;;;5147476;27;34218;-75
2022/08/30 06:51:27;;;;;;;3.35;2.00;;;18.20;8.70;;;;;;5147162;27;34390;-75
2022/08/30 06:53:53;;;;;;;4.00;2.15;;;18.20;8.70;;;;;;5163531;27;35106;-75
2022/08/30 06:56:20;;;;;;;4.05;2.00;;;18.20;8.60;;;;;;5147735;27;34108;-75
2022/08/30 06:58:46;;;;;;;12.50;2.50;;;18.20;9.00;;;;;;5147600;27;34011;-75
2022/08/30 07:01:15;;;;;;;3.28;1.80;;;18.20;9.00;;;;;;5156336;27;34216;-76
2022/08/30 07:03:41;;;;;;;5.75;2.47;;;18.30;9.00;;;;;;5150978;27;35604;-75
2022/08/30 07:06:07;;;;;;;3.90;2.38;;;18.30;9.00;;;;;;5133693;27;34404;-76
2022/08/30 07:08:34;;;;;;;4.90;2.25;;;18.40;9.00;;;;;;5161931;27;34556;-76
2022/08/30 07:11:01;;;;;;;779.03;39.83;;;18.40;8.90;;;;;;5169709;27;34173;-75
2022/08/30 07:13:27;;;;;;;46.45;5.07;;;18.40;8.80;;;;;;5150352;27;36479;-76
2022/08/30 07:15:53;;;;;;;9.68;2.38;;;18.60;8.70;;;;;;5168714;27;34240;-76
2022/08/30 07:21:14;;;;;;;3.17;2.10;;;18.80;8.20;;;;;;5159688;27;34079;-75
2022/08/30 07:23:42;;;;;;;8.20;2.53;;;19.00;8.40;;;;;;5159840;27;34259;-76
2022/08/30 07:26:11;;;;;;;3.63;2.45;;;19.10;8.30;;;;;;5150206;27;34409;-75
2022/08/30 07:28:39;;;;;;;11.65;2.20;;;19.20;8.30;;;;;;5133181;27;34297;-75
2022/08/30 07:31:06;;;;;;;9.35;2.70;;;19.30;8.30;;;;;;5150957;27;34156;-76
2022/08/30 07:33:32;;;;;;;3.92;2.05;;;19.40;8.30;;;;;;5133153;27;35836;-76
2022/08/30 07:35:59;;;;;;;4.63;2.00;;;19.50;8.20;;;;;;5150098;27;34485;-76
2022/08/30 07:38:25;;;;;;;10.48;1.98;;;19.60;8.00;;;;;;5148756;27;34206;-76
2022/08/30 07:40:52;;;;;;;6.28;2.20;;;19.80;7.90;;;;;;5129869;27;34109;-75
2022/08/30 07:43:18;;;;;;;4.20;1.98;;;20.00;7.60;;;;;;5131642;27;36270;-76
2022/08/30 07:45:44;;;;;;;6.03;1.98;;;20.20;7.30;;;;;;5141664;27;34289;-76
2022/08/30 07:48:12;;;;;;;8.85;1.88;;;20.40;7.10;;;;;;5150860;27;34424;-76
2022/08/30 07:50:42;;;;;;;4.22;1.50;;;20.70;6.60;;;;;;5114692;27;34134;-76
2022/08/30 07:53:09;;;;;;;4.13;1.85;;;20.90;6.00;;;;;;5150888;27;35323;-77
2022/08/30 07:55:35;;;;;;;4.13;1.58;;;21.10;6.00;;;;;;5144142;27;34190;-77
2022/08/30 07:58:00;;;;;;;2.15;1.60;;;21.30;5.80;;;;;;5150562;27;34254;-77
2022/08/30 08:00:27;;;;;;;2.50;1.40;;;21.50;5.50;;;;;;5169235;27;34223;-76
2022/08/30 08:02:53;;;;;;;3.42;2.00;;;21.60;5.10;;;;;;5149581;27;35542;-77
2022/08/30 08:05:19;;;;;;;4.15;1.95;;;21.90;4.70;;;;;;5149552;27;34242;-76
2022/08/30 08:07:45;;;;;;;2.33;1.52;;;22.10;4.30;;;;;;5151022;27;34165;-76
2022/08/30 08:10:12;;;;;;;3.20;1.50;;;22.40;3.80;;;;;;5138867;27;34464;-76
2022/08/30 08:12:38;;;;;;;3.47;1.50;;;22.70;3.70;;;;;;5133832;27;35768;-76
2022/08/30 08:15:05;;;;;;;3.22;1.20;;;23.00;3.10;;;;;;5149817;27;34217;-77
2022/08/30 08:17:32;;;;;;;2.47;1.52;;;23.20;2.60;;;;;;5168774;27;34591;-77
2022/08/30 08:19:59;;;;;;;3.55;1.70;;;23.30;2.30;;;;;;5169148;27;34554;-77
2022/08/30 08:22:25;;;;;;;2.92;1.25;;;23.40;2.10;;;;;;5150766;27;35718;-77
2022/08/30 08:24:51;;;;;;;3.63;1.60;;;23.60;1.80;;;;;;5144170;27;34137;-76
2022/08/30 08:27:17;;;;;;;2.22;1.42;;;23.90;1.60;;;;;;5130199;27;34086;-77
2022/08/30 08:29:43;;;;;;;3.90;1.40;;;24.10;1.20;;;;;;5164671;27;34338;-78
2022/08/30 08:32:10;;;;;;;3.13;1.70;;;24.30;1.00;;;;;;5168604;27;35230;-77
2022/08/30 08:34:36;;;;;;;2.60;1.40;;;24.60;1.00;;;;;;5150139;27;34103;-77
2022/08/30 08:37:03;;;;;;;1.98;1.40;;;24.90;1.00;;;;;;5133355;27;34091;-77
2022/08/30 08:39:30;;;;;;;2.80;1.48;;;25.20;1.00;;;;;;5168602;27;34234;-77
2022/08/30 08:42:22;;;;;;;3.38;1.30;;;25.50;1.00;;;;;;5132991;27;35482;-77
2022/08/30 08:45:08;;;;;;;4.05;1.80;;;25.80;1.00;;;;;;5150010;27;34316;-78
2022/08/30 08:48:00;;;;;;;2.42;1.38;;;26.10;1.00;;;;;;5129122;27;34469;-76
2022/08/30 08:50:26;;;;;;;6.90;1.92;;;26.50;1.00;;;;;;5142273;27;34234;-77
2022/08/30 08:55:52;;;;;;;2.92;1.67;;;26.90;1.00;;;;;;5139311;27;34131;-77
2022/08/30 08:58:24;;;;;;;3.58;1.85;;;27.10;1.00;;;;;;5149896;27;34121;-76
2022/08/30 09:00:51;;;;;;;4.05;1.80;;;27.20;1.00;;;;;;5163436;27;34431;-76
2022/08/30 09:03:20;;;;;;;2.90;1.30;;;27.30;1.00;;;;;;5146723;27;34997;-76
2022/08/30 09:05:48;;;;;;;2.05;1.35;;;27.50;1.00;;;;;;5128889;27;34385;-76
2022/08/30 09:08:16;;;;;;;2.20;1.60;;;27.60;1.00;;;;;;5146865;27;34409;-76
2022/08/30 09:11:00;;;;;;;4.93;1.52;;;27.70;1.00;;;;;;5128494;27;34067;-76
2022/08/30 09:13:26;;;;;;;2.20;1.50;;;27.80;1.00;;;;;;5128131;27;35842;-77
2022/08/30 09:15:54;;;;;;;1.85;1.55;;;27.90;1.00;;;;;;5145903;27;34235;-76
2022/08/30 09:18:41;;;;;;;2.60;1.30;;;28.00;1.00;;;;;;5145351;27;34027;-76
2022/08/30 09:21:08;;;;;;;2.40;1.50;;;28.10;1.00;;;;;;5145781;27;34156;-76
2022/08/30 09:23:34;;;;;;;1.42;1.30;;;28.20;1.00;;;;;;5145345;27;35760;-76
2022/08/30 09:26:04;;;;;;;1.70;1.35;;;28.30;1.00;;;;;;5146091;27;34147;-77
2022/08/30 09:28:47;;;;;;;2.88;1.35;;;28.50;1.00;;;;;;5166761;27;34425;-76
2022/08/30 09:31:23;;;;;;;5.57;1.75;;;28.70;1.00;;;;;;5149188;27;34321;-76
2022/08/30 09:34:07;;;;;;;1.60;1.40;;;28.80;1.00;;;;;;5148913;27;34836;-76
2022/08/30 09:36:43;;;;;;;1.63;1.35;;;29.10;1.00;;;;;;5149174;27;34186;-76
2022/08/30 09:39:20;;;;;;;4.20;1.60;;;29.20;1.00;;;;;;5133071;27;34205;-76
2022/08/30 09:41:48;;;;;;;3.25;1.63;;;29.40;1.00;;;;;;5141760;27;33976;-77
2022/08/30 09:44:26;;;;;;;2.95;1.58;;;29.60;1.00;;;;;;5148836;27;35589;-77
2022/08/30 09:46:56;;;;;;;3.55;1.73;;;29.80;1.00;;;;;;5149591;27;34152;-77
2022/08/30 09:49:35;;;;;;;2.08;1.67;;;29.90;1.00;;;;;;5132474;27;34224;-77
2022/08/30 09:52:11;;;;;;;3.15;1.50;;;30.20;1.00;;;;;;5168204;27;34244;-77
2022/08/30 09:54:47;;;;;;;5.13;1.48;;;30.30;1.00;;;;;;5144629;27;34864;-77
2022/08/30 09:57:26;;;;;;;2.35;1.67;;;30.20;1.00;;;;;;5149942;27;34053;-76
2022/08/30 10:00:05;;;;;;;3.30;1.40;;;30.10;1.00;;;;;;5148170;27;34142;-79
2022/08/30 10:02:46;;;;;;;1.40;1.30;;;30.10;1.00;;;;;;5146905;27;34440;-76
2022/08/30 10:05:35;;;;;;;2.33;1.85;;;30.00;1.00;;;;;;5140130;27;34407;-77
2022/08/30 10:08:14;;;;;;;4.90;1.90;;;30.20;1.00;;;;;;5117837;27;34205;-77
2022/08/30 10:10:57;;;;;;;2.67;1.60;;;30.40;1.00;;;;;;5130066;27;34149;-77
2022/08/30 10:13:37;;;;;;;7.20;2.08;;;30.80;1.00;;;;;;5137280;27;34199;-78
2022/08/30 10:16:16;;;;;;;4.25;1.67;;;30.90;1.00;;;;;;5148566;27;35824;-78
2022/08/30 10:18:57;;;;;;;7.15;1.75;;;30.90;1.00;;;;;;5148496;27;34085;-77
2022/08/30 10:21:30;;;;;;;2.15;1.80;;;30.90;1.00;;;;;;5166113;27;34281;-76
2022/08/30 10:24:03;;;;;;;4.20;1.75;;;31.00;1.00;;;;;;5145332;27;34155;-77
2022/08/30 10:26:35;;;;;;;1.67;1.40;;;31.20;1.00;;;;;;5127607;27;35749;-78
2022/08/30 10:29:09;;;;;;;2.13;1.80;;;31.20;1.00;;;;;;5146414;27;34261;-77
2022/08/30 10:31:46;;;;;;;6.25;1.95;;;31.30;1.00;;;;;;5144484;27;34168;-77
2022/08/30 10:34:23;;;;;;;3.42;1.98;;;31.30;1.00;;;;;;5143277;27;34074;-77
2022/08/30 10:37:10;;;;;;;4.00;1.65;;;31.50;1.00;;;;;;5116949;27;35457;-78
2022/08/30 10:39:41;;;;;;;2.40;1.80;;;31.70;1.00;;;;;;5127009;27;34353;-76
2022/08/30 10:42:20;;;;;;;2.33;1.60;;;32.00;1.00;;;;;;5127534;27;34260;-76
2022/08/30 10:44:52;;;;;;;5.43;1.98;;;32.00;1.00;;;;;;5127700;27;34063;-77
2022/08/30 10:47:48;;;;;;;3.22;1.40;;;32.20;1.00;;;;;;5118939;27;35612;-77
2022/08/30 10:50:20;;;;;;;4.82;1.67;;;32.40;1.00;;;;;;5127266;27;34156;-77
2022/08/30 10:52:53;;;;;;;1.83;1.67;;;32.50;1.00;;;;;;5146074;27;34073;-77
2022/08/30 10:55:27;;;;;;;4.25;2.35;;;32.60;1.00;;;;;;5127246;27;34495;-78
2022/08/30 10:58:03;;;;;;;2.30;1.73;;;32.60;1.00;;;;;;5131117;27;35606;-78
2022/08/30 11:00:44;;;;;;;3.00;1.73;;;32.70;1.00;;;;;;5147584;27;34380;-76
2022/08/30 11:03:49;;;;;;;4.18;2.10;;;32.70;1.00;;;;;;5132213;27;34165;-76
2022/08/30 11:06:39;;;;;;;3.10;1.80;;;32.70;1.00;;;;;;5137057;27;34490;-76
2022/08/30 11:09:32;;;;;;;2.63;1.70;;;32.80;1.00;;;;;;5132720;27;35863;-77
2022/08/30 11:12:31;;;;;;;4.13;2.10;;;33.00;1.00;;;;;;5150908;27;34285;-77
2022/08/30 11:14:57;;;;;;;3.70;1.80;;;33.20;1.00;;;;;;5113833;27;34068;-77
2022/08/30 11:17:39;;;;;;;4.18;2.13;;;33.40;1.00;;;;;;5134972;27;34120;-77
2022/08/30 11:20:27;;;;;;;2.40;2.03;;;33.50;1.00;;;;;;5147317;27;35795;-77
2022/08/30 11:23:24;;;;;;;3.88;1.90;;;33.80;1.00;;;;;;5149028;27;34058;-77
2022/08/30 11:26:09;;;;;;;4.22;1.92;;;34.10;1.00;;;;;;5148234;27;34755;-77
2022/08/30 11:28:59;;;;;;;3.63;1.83;;;34.10;1.00;;;;;;5149923;27;34737;-77
2022/08/30 11:31:34;;;;;;;4.57;1.75;;;34.10;1.00;;;;;;5144585;27;34411;-77
2022/08/30 11:34:01;;;;;;;2.63;1.70;;;34.00;1.00;;;;;;5149505;27;34223;-77
2022/08/30 11:37:00;;;;;;;1.63;1.52;;;33.90;1.00;;;;;;5147301;27;34374;-77
2022/08/30 11:39:49;;;;;;;3.45;1.80;;;33.70;1.00;;;;;;5153345;27;34015;-77
2022/08/30 11:42:33;;;;;;;2.75;1.80;;;33.70;1.00;;;;;;5150519;27;35738;-77
2022/08/30 11:45:34;;;;;;;2.15;1.80;;;33.80;1.00;;;;;;5151733;27;34177;-77
2022/08/30 11:48:04;;;;;;;2.78;1.85;;;33.90;1.00;;;;;;5139216;27;34071;-78
2022/08/30 11:50:48;;;;;;;1.90;1.80;;;34.10;1.00;;;;;;5151024;27;34355;-77
2022/08/30 11:53:28;;;;;;;3.90;2.17;;;34.20;1.00;;;;;;5168617;27;34577;-76
2022/08/30 11:56:25;;;;;;;3.05;1.70;;;34.20;1.00;;;;;;5169519;27;34145;-78
2022/08/30 11:58:58;;;;;;;2.22;1.70;;;34.00;1.00;;;;;;5151496;27;34417;-78
2022/08/30 12:01:36;;;;;;;2.47;1.80;;;33.80;1.00;;;;;;5152110;27;34168;-77
2022/08/30 12:04:25;;;;;;;3.00;1.75;;;33.90;1.00;;;;;;5134530;27;35560;-76
2022/08/30 12:06:59;;;;;;;2.58;1.75;;;33.90;1.00;;;;;;5135168;27;34315;-75
2022/08/30 12:10:00;;;;;;;4.97;1.80;;;33.90;1.00;;;;;;5133885;27;34232;-76
2022/08/30 12:12:47;;;;;;;3.55;1.90;;;34.00;1.00;;;;;;5137340;27;34342;-77
2022/08/30 12:15:44;;;;;;;1.60;1.50;;;34.00;1.00;;;;;;5130835;27;35655;-77
2022/08/30 12:20:55;;;;;;;2.65;1.75;;;34.20;1.00;;;;;;5141961;27;34369;-77
2022/08/30 12:23:35;;;;;;;3.42;1.92;;;34.00;1.00;;;;;;5148154;27;34096;-77
2022/08/30 12:26:14;;;;;;;1.77;1.67;;;33.80;1.00;;;;;;5129604;27;36654;-79
2022/08/30 12:28:42;;;;;;;2.30;1.85;;;33.50;1.00;;;;;;5130461;27;34080;-76
2022/08/30 12:31:14;;;;;;;3.00;1.60;;;33.30;1.00;;;;;;5129634;27;34174;-76
2022/08/30 12:33:45;;;;;;;2.33;1.50;;;33.00;1.00;;;;;;5112853;27;34215;-76
2022/08/30 12:36:15;;;;;;;5.80;2.00;;;32.60;1.00;;;;;;5129994;27;35790;-77
2022/08/30 12:38:41;;;;;;;12.70;2.20;;;32.40;1.00;;;;;;5129654;27;34198;-77
2022/08/30 12:41:07;;;;;;;10.13;1.90;;;32.20;1.00;;;;;;5148327;27;34078;-77
2022/08/30 12:43:38;;;;;;;3.40;2.00;;;32.10;1.00;;;;;;5129126;27;34028;-77
2022/08/30 12:46:09;;;;;;;2.45;1.80;;;32.30;1.00;;;;;;5113346;27;34392;-77
2022/08/30 12:48:37;;;;;;;1.73;1.60;;;32.40;1.00;;;;;;5128081;27;34349;-78
2022/08/30 12:51:05;;;;;;;4.85;2.03;;;32.60;1.00;;;;;;5130176;27;34307;-77
2022/08/30 12:53:36;;;;;;;5.40;1.70;;;32.80;1.00;;;;;;5129067;27;34223;-76
2022/08/30 12:56:08;;;;;;;3.38;1.80;;;33.10;1.00;;;;;;5128443;27;36409;-77
2022/08/30 12:58:46;;;;;;;2.78;2.13;;;33.30;1.00;;;;;;5129301;27;34225;-79
2022/08/30 13:01:25;;;;;;;1.92;1.60;;;33.40;1.00;;;;;;5111936;27;34743;-77
2022/08/30 13:04:21;;;;;;;1.77;1.50;;;33.60;1.00;;;;;;5110241;27;34207;-77
2022/08/30 13:06:52;;;;;;;3.20;1.90;;;33.80;1.00;;;;;;5127272;27;35530;-77
2022/08/30 13:09:35;;;;;;;1.88;1.65;;;33.80;1.00;;;;;;5129583;27;34174;-76
2022/08/30 13:12:05;;;;;;;1.92;1.65;;;33.90;1.00;;;;;;5147158;27;34057;-77
2022/08/30 13:14:35;;;;;;;2.38;1.55;;;34.10;1.00;;;;;;5128539;27;34384;-77
2022/08/30 13:17:26;;;;;;;1.77;1.63;;;34.30;1.00;;;;;;5112078;27;35764;-77